createdAt,value
2023-04-25T00:01:11.566Z,3.50
2023-04-25T00:03:38.874Z,3.55
2023-04-25T00:06:06.051Z,3.47
2023-04-25T00:08:33.110Z,3.79
2023-04-25T00:11:01.694Z,3.85
2023-04-25T00:13:28.690Z,4.09
2023-04-25T00:15:58.392Z,4.14
2023-04-25T00:18:26.390Z,3.85
2023-04-25T00:20:53.326Z,3.60
2023-04-25T00:23:20.315Z,3.69
2023-04-25T00:25:50.474Z,3.99
2023-04-25T00:28:17.222Z,3.76
2023-04-25T00:30:44.017Z,4.01
2023-04-25T00:33:11.147Z,3.73
2023-04-25T00:35:38.620Z,4.09
2023-04-25T00:38:07.964Z,3.93
2023-04-25T00:40:34.729Z,4.27
2023-04-25T00:43:01.362Z,4.21
2023-04-25T00:45:31.478Z,4.17
2023-04-25T00:47:58.520Z,4.96
2023-04-25T00:50:25.274Z,5.52
2023-04-25T00:53:35.947Z,5.91
2023-04-25T00:56:02.938Z,6.05
2023-04-25T00:58:32.379Z,5.41
2023-04-25T01:00:59.019Z,4.79
2023-04-25T01:03:26.267Z,4.53
2023-04-25T01:05:53.045Z,4.39
2023-04-25T01:08:21.005Z,4.48
2023-04-25T01:10:47.625Z,4.58
2023-04-25T01:13:15.411Z,4.67
2023-04-25T01:15:42.389Z,4.73
2023-04-25T01:18:09.061Z,4.56
2023-04-25T01:20:36.072Z,4.64
2023-04-25T01:23:02.716Z,5.11
2023-04-25T01:25:29.955Z,5.27
2023-04-25T01:27:58.614Z,5.33
2023-04-25T01:30:27.649Z,4.89
2023-04-25T01:32:57.886Z,5.27
2023-04-25T01:35:24.708Z,4.62
2023-04-25T01:37:51.772Z,4.73
2023-04-25T01:40:21.654Z,5.13
2023-04-25T01:42:52.682Z,4.93
2023-04-25T01:45:22.092Z,5.23
2023-04-25T01:47:48.785Z,4.92
2023-04-25T01:50:15.805Z,4.40
2023-04-25T01:52:42.762Z,3.90
2023-04-25T01:55:12.565Z,3.41
2023-04-25T01:57:49.039Z,3.29
2023-04-25T02:00:18.529Z,3.26
2023-04-25T02:02:45.594Z,3.40
2023-04-25T02:05:12.669Z,3.54
2023-04-25T02:07:39.332Z,3.36
2023-04-25T02:10:06.406Z,3.55
2023-04-25T02:12:33.484Z,3.57
2023-04-25T02:15:00.457Z,3.54
2023-04-25T02:17:27.115Z,3.48
2023-04-25T02:19:53.770Z,3.49
2023-04-25T02:22:20.648Z,3.83
2023-04-25T02:24:47.567Z,3.63
2023-04-25T02:27:14.330Z,3.86
2023-04-25T02:29:41.410Z,3.50
2023-04-25T02:32:23.674Z,3.22
2023-04-25T02:34:50.761Z,3.49
2023-04-25T02:37:17.499Z,3.22
2023-04-25T02:39:44.561Z,3.30
2023-04-25T02:42:11.337Z,3.28
2023-04-25T02:44:43.039Z,3.21
2023-04-25T02:47:10.109Z,3.28
2023-04-25T02:49:37.201Z,3.00
2023-04-25T02:52:04.423Z,3.09
2023-04-25T02:54:31.392Z,3.15
2023-04-25T02:56:58.105Z,3.11
2023-04-25T02:59:25.174Z,3.00
2023-04-25T03:01:51.881Z,3.07
2023-04-25T03:04:18.947Z,3.17
2023-04-25T03:07:01.828Z,3.11
2023-04-25T03:09:30.076Z,3.13
2023-04-25T03:11:59.794Z,3.44
2023-04-25T03:14:26.966Z,3.55
2023-04-25T03:16:54.045Z,3.82
2023-04-25T03:19:20.898Z,4.02
2023-04-25T03:21:47.925Z,4.33
2023-04-25T03:24:15.044Z,4.37
2023-04-25T03:26:44.751Z,4.51
2023-04-25T03:29:11.840Z,4.39
2023-04-25T03:31:38.936Z,4.47
2023-04-25T03:34:06.495Z,4.89
2023-04-25T03:36:33.573Z,4.92
2023-04-25T03:39:00.416Z,5.02
2023-04-25T03:41:30.093Z,5.45
2023-04-25T03:43:57.207Z,5.52
2023-04-25T03:46:24.459Z,5.22
2023-04-25T03:48:51.269Z,5.15
2023-04-25T03:51:18.469Z,4.99
2023-04-25T03:53:45.231Z,4.91
2023-04-25T03:56:11.935Z,4.71
2023-04-25T03:58:39.124Z,4.96
2023-04-25T04:01:05.863Z,4.96
2023-04-25T04:03:32.663Z,4.98
2023-04-25T04:05:59.628Z,4.94
2023-04-25T04:08:26.378Z,4.76
2023-04-25T04:10:53.572Z,4.84
2023-04-25T04:13:21.376Z,4.44
2023-04-25T04:15:48.445Z,4.12
2023-04-25T04:18:15.364Z,4.48
2023-04-25T04:20:42.125Z,4.25
2023-04-25T04:23:09.980Z,4.37
2023-04-25T04:25:36.804Z,4.38
2023-04-25T04:28:04.078Z,4.20
2023-04-25T04:30:35.709Z,3.88
2023-04-25T04:33:03.199Z,3.81
2023-04-25T04:35:30.215Z,3.92
2023-04-25T04:37:57.403Z,3.71
2023-04-25T04:40:26.069Z,3.62
2023-04-25T04:42:53.178Z,3.12
2023-04-25T04:45:21.386Z,3.37
2023-04-25T04:47:48.411Z,3.44
2023-04-25T04:50:15.567Z,3.52
2023-04-25T04:52:42.396Z,3.22
2023-04-25T04:55:10.448Z,3.26
2023-04-25T04:57:37.145Z,3.13
2023-04-25T05:00:05.966Z,3.44
2023-04-25T05:02:39.076Z,3.10
2023-04-25T05:05:06.408Z,3.03
2023-04-25T05:07:33.199Z,3.31
2023-04-25T05:10:00.353Z,2.86
2023-04-25T05:12:27.093Z,3.08
2023-04-25T05:14:55.139Z,2.94
2023-04-25T05:17:24.995Z,3.31
2023-04-25T05:19:52.090Z,2.82
2023-04-25T05:22:18.762Z,2.86
2023-04-25T05:24:45.871Z,3.23
2023-04-25T05:27:17.887Z,10.80
2023-04-25T05:29:47.673Z,10.82
2023-04-25T05:32:14.851Z,5.11
2023-04-25T05:34:44.634Z,6.08
2023-04-25T05:37:13.522Z,8.20
2023-04-25T05:39:40.613Z,6.16
2023-04-25T05:42:10.274Z,3.54
2023-04-25T05:44:36.989Z,3.12
2023-04-25T05:47:04.159Z,3.53
2023-04-25T05:49:31.335Z,3.20
2023-04-25T05:51:58.027Z,3.10
2023-04-25T05:54:24.777Z,2.69
2023-04-25T05:56:57.322Z,2.93
2023-04-25T05:59:24.354Z,3.22
2023-04-25T06:01:56.516Z,3.37
2023-04-25T06:04:28.323Z,3.49
2023-04-25T06:06:55.432Z,3.38
2023-04-25T06:09:25.148Z,4.06
2023-04-25T06:11:52.224Z,4.52
2023-04-25T06:14:19.723Z,3.87
2023-04-25T06:16:46.765Z,3.69
2023-04-25T06:19:16.298Z,3.20
2023-04-25T06:21:44.363Z,4.17
2023-04-25T06:24:11.279Z,4.13
2023-04-25T06:26:38.118Z,3.24
2023-04-25T06:29:05.227Z,3.23
2023-04-25T06:31:32.346Z,3.01
2023-04-25T06:34:06.966Z,2.95
2023-04-25T06:36:40.972Z,3.95
2023-04-25T06:39:10.681Z,3.73
2023-04-25T06:41:37.711Z,3.52
2023-04-25T06:44:05.179Z,3.01
2023-04-25T06:46:32.162Z,2.72
2023-04-25T06:48:59.261Z,3.07
2023-04-25T06:51:26.047Z,2.85
2023-04-25T06:53:53.061Z,2.76
2023-04-25T06:56:20.166Z,3.22
2023-04-25T06:58:47.215Z,2.71
2023-04-25T07:01:14.377Z,2.76
2023-04-25T07:03:41.590Z,2.83
2023-04-25T07:06:08.769Z,2.63
2023-04-25T07:08:35.788Z,2.50
2023-04-25T07:11:02.543Z,2.55
2023-04-25T07:13:29.587Z,2.50
2023-04-25T07:15:57.410Z,2.43
2023-04-25T07:18:24.310Z,2.56
2023-04-25T07:20:51.484Z,2.78
2023-04-25T07:23:18.676Z,2.97
2023-04-25T07:26:10.314Z,2.62
2023-04-25T07:28:37.745Z,2.77
2023-04-25T07:31:04.578Z,2.63
2023-04-25T07:33:31.423Z,2.51
2023-04-25T07:36:00.368Z,2.64
2023-04-25T07:38:28.394Z,2.60
2023-04-25T07:40:55.148Z,2.67
2023-04-25T07:43:22.117Z,2.79
2023-04-25T07:45:50.991Z,2.97
2023-04-25T07:48:18.495Z,3.25
2023-04-25T07:50:45.287Z,3.37
2023-04-25T07:53:18.838Z,3.41
2023-04-25T07:55:45.957Z,3.42
2023-04-25T07:58:13.050Z,3.28
2023-04-25T08:00:42.041Z,3.47
2023-04-25T08:03:10.676Z,3.59
2023-04-25T08:05:39.315Z,3.67
2023-04-25T08:08:06.163Z,3.77
2023-04-25T08:10:33.786Z,3.51
2023-04-25T08:13:00.569Z,3.70
2023-04-25T08:15:27.625Z,3.74
2023-04-25T08:18:00.968Z,3.56
2023-04-25T08:20:28.972Z,3.37
2023-04-25T08:22:56.062Z,3.32
2023-04-25T08:25:22.890Z,3.59
2023-04-25T08:27:50.128Z,3.68
2023-04-25T08:30:17.201Z,3.82
2023-04-25T08:32:45.854Z,3.46
2023-04-25T08:35:12.604Z,3.51
2023-04-25T08:37:39.346Z,3.49
2023-04-25T08:40:06.756Z,3.54
2023-04-25T08:42:34.811Z,3.59
2023-04-25T08:45:04.381Z,3.63
2023-04-25T08:47:33.121Z,3.74
2023-04-25T08:50:00.520Z,3.92
2023-04-25T08:52:28.732Z,3.75
2023-04-25T08:54:55.471Z,4.23
2023-04-25T08:57:22.391Z,4.28
2023-04-25T08:59:49.089Z,4.76
2023-04-25T09:02:16.360Z,4.76
2023-04-25T09:04:48.997Z,4.39
2023-04-25T09:07:16.109Z,4.73
2023-04-25T09:09:45.434Z,4.70
2023-04-25T09:12:13.386Z,4.10
2023-04-25T09:14:40.161Z,4.31
2023-04-25T09:17:06.959Z,4.45
2023-04-25T09:19:41.038Z,4.16
2023-04-25T09:22:08.758Z,4.64
2023-04-25T09:24:45.231Z,3.11
2023-04-25T09:27:13.562Z,2.32
2023-04-25T09:29:41.164Z,2.59
2023-04-25T09:32:34.214Z,2.86
2023-04-25T09:35:01.155Z,2.38
2023-04-25T09:37:29.348Z,2.40
2023-04-25T09:40:00.033Z,2.08
2023-04-25T09:42:27.552Z,1.68
2023-04-25T09:44:55.212Z,1.41
2023-04-25T09:47:22.139Z,1.39
2023-04-25T09:49:48.991Z,1.49
2023-04-25T09:52:17.104Z,1.30
2023-04-25T09:54:44.530Z,1.35
2023-04-25T09:57:12.924Z,1.35
2023-04-25T09:59:40.842Z,1.36
2023-04-25T10:02:08.434Z,1.53
2023-04-25T10:04:35.947Z,1.41
2023-04-25T10:07:09.579Z,1.35
2023-04-25T10:09:40.028Z,1.06
2023-04-25T10:12:08.020Z,1.21
2023-04-25T10:14:34.989Z,0.95
2023-04-25T10:17:03.115Z,0.96
2023-04-25T10:19:29.953Z,0.89
2023-04-25T10:22:03.633Z,1.03
2023-04-25T10:24:30.385Z,1.14
2023-04-25T10:26:57.373Z,0.94
2023-04-25T10:29:30.347Z,1.06
2023-04-25T10:31:57.247Z,1.28
2023-04-25T10:34:44.624Z,1.43
2023-04-25T10:37:25.507Z,1.41
2023-04-25T10:39:52.479Z,1.62
2023-04-25T10:42:20.307Z,1.37
2023-04-25T10:45:03.303Z,1.48
2023-04-25T10:47:36.837Z,1.26
2023-04-25T10:50:15.282Z,1.08
2023-04-25T10:52:42.286Z,1.13
2023-04-25T10:55:09.471Z,1.23
2023-04-25T10:57:43.840Z,1.23
2023-04-25T11:00:11.712Z,1.44
2023-04-25T11:02:42.801Z,1.10
2023-04-25T11:05:10.281Z,1.12
2023-04-25T11:08:04.006Z,1.19
2023-04-25T11:10:34.303Z,1.29
2023-04-25T11:13:02.373Z,1.03
2023-04-25T11:15:30.298Z,1.20
2023-04-25T11:17:57.097Z,1.11
2023-04-25T11:20:26.045Z,1.15
2023-04-25T11:22:52.937Z,1.04
2023-04-25T11:25:20.385Z,1.27
2023-04-25T11:27:50.790Z,1.14
2023-04-25T11:30:17.478Z,1.09
2023-04-25T11:32:44.292Z,1.18
2023-04-25T11:35:12.395Z,1.05
2023-04-25T11:37:42.713Z,1.22
2023-04-25T11:40:12.346Z,1.00
2023-04-25T11:42:48.074Z,1.16
2023-04-25T11:45:16.555Z,1.21
2023-04-25T11:47:43.527Z,1.16
2023-04-25T11:50:10.865Z,1.12
2023-04-25T11:52:47.526Z,1.13
2023-04-25T11:55:18.525Z,1.13
2023-04-25T11:57:46.249Z,1.30
2023-04-25T12:00:19.145Z,1.15
2023-04-25T12:02:47.626Z,1.06
2023-04-25T12:05:30.385Z,1.07
2023-04-25T12:07:59.212Z,1.07
2023-04-25T12:10:25.974Z,1.13
2023-04-25T12:12:52.665Z,1.00
2023-04-25T12:15:24.543Z,0.88
2023-04-25T12:17:52.214Z,1.03
2023-04-25T12:20:26.119Z,1.17
2023-04-25T12:22:52.976Z,1.58
2023-04-25T12:25:38.443Z,1.32
2023-04-25T12:28:14.101Z,1.11
2023-04-25T12:31:07.494Z,1.12
2023-04-25T12:33:36.271Z,0.98
2023-04-25T12:36:04.586Z,1.12
2023-04-25T12:38:32.918Z,1.23
2023-04-25T12:41:00.069Z,1.15
2023-04-25T12:43:26.922Z,1.09
2023-04-25T12:45:54.084Z,1.44
2023-04-25T12:48:21.710Z,1.45
2023-04-25T12:50:49.207Z,1.24
2023-04-25T12:53:19.762Z,1.27
2023-04-25T12:55:46.596Z,1.33
2023-04-25T12:58:16.923Z,1.30
2023-04-25T13:00:43.939Z,1.35
2023-04-25T13:03:11.137Z,1.25
2023-04-25T13:05:38.360Z,1.48
2023-04-25T13:08:05.396Z,1.41
2023-04-25T13:10:32.113Z,1.40
2023-04-25T13:13:02.699Z,1.57
2023-04-25T13:15:29.998Z,1.54
2023-04-25T13:17:56.802Z,1.61
2023-04-25T13:20:23.628Z,1.64
2023-04-25T13:22:50.598Z,1.84
2023-04-25T13:25:17.431Z,1.64
2023-04-25T13:27:47.185Z,1.55
2023-04-25T13:30:14.264Z,1.55
2023-04-25T13:32:41.377Z,1.58
2023-04-25T13:35:13.432Z,1.74
2023-04-25T13:37:40.498Z,1.67
2023-04-25T13:40:09.239Z,1.61
2023-04-25T13:42:36.152Z,1.79
2023-04-25T13:45:03.343Z,1.61
2023-04-25T13:47:30.177Z,1.63
2023-04-25T13:49:57.282Z,1.71
2023-04-25T13:52:24.605Z,1.72
2023-04-25T13:54:51.380Z,1.65
2023-04-25T13:57:18.636Z,1.71
2023-04-25T13:59:45.650Z,1.60
2023-04-25T14:02:13.564Z,1.67
2023-04-25T14:04:41.199Z,1.56
2023-04-25T14:07:07.998Z,1.69
2023-04-25T14:09:34.779Z,1.86
2023-04-25T14:12:02.245Z,1.84
2023-04-25T14:14:29.697Z,2.01
2023-04-25T14:16:56.440Z,1.78
2023-04-25T14:19:23.195Z,1.90
2023-04-25T14:21:53.941Z,2.01
2023-04-25T14:24:21.480Z,1.95
2023-04-25T14:27:18.340Z,1.99
2023-04-25T14:29:46.827Z,1.81
2023-04-25T14:32:13.599Z,1.84
2023-04-25T14:34:41.836Z,1.76
2023-04-25T14:37:08.882Z,1.68
2023-04-25T14:39:35.842Z,1.83
2023-04-25T14:42:03.055Z,1.82
2023-04-25T14:44:30.634Z,1.93
2023-04-25T14:46:57.384Z,1.74
2023-04-25T14:49:24.802Z,1.62
2023-04-25T14:51:52.045Z,1.62
2023-04-25T14:54:19.487Z,1.57
2023-04-25T14:56:48.216Z,1.66
2023-04-25T14:59:15.032Z,1.58
2023-04-25T15:01:42.854Z,1.58
2023-04-25T15:04:09.863Z,1.47
2023-04-25T15:06:37.307Z,1.40
2023-04-25T15:09:04.586Z,1.66
2023-04-25T15:11:31.841Z,1.38
2023-04-25T15:13:58.587Z,1.62
2023-04-25T15:16:25.303Z,1.50
2023-04-25T15:18:52.513Z,1.61
2023-04-25T15:21:26.662Z,1.52
2023-04-25T15:23:54.718Z,1.41
2023-04-25T15:26:21.767Z,1.41
2023-04-25T15:28:49.833Z,1.67
2023-04-25T15:31:17.207Z,1.73
2023-04-25T15:33:44.920Z,2.02
2023-04-25T15:36:12.454Z,1.73
2023-04-25T15:38:39.564Z,1.72
2023-04-25T15:41:06.883Z,1.65
2023-04-25T15:43:33.703Z,1.59
2023-04-25T15:46:00.843Z,2.24
2023-04-25T15:48:28.981Z,2.12
2023-04-25T15:50:55.765Z,1.58
2023-04-25T15:53:24.759Z,1.71
2023-04-25T15:55:52.024Z,1.80
2023-04-25T15:58:18.786Z,1.97
2023-04-25T16:00:46.325Z,1.70
2023-04-25T16:03:14.001Z,1.71
2023-04-25T16:05:42.203Z,1.67
2023-04-25T16:08:19.069Z,1.66
2023-04-25T16:10:47.413Z,1.81
2023-04-25T16:13:14.254Z,1.68
2023-04-25T16:15:42.276Z,1.66
2023-04-25T16:18:09.271Z,1.75
2023-04-25T16:20:36.420Z,1.72
2023-04-25T16:23:03.241Z,1.80
2023-04-25T16:25:31.500Z,1.68
2023-04-25T16:27:58.547Z,1.99
2023-04-25T16:30:25.340Z,1.78
2023-04-25T16:32:52.116Z,1.72
2023-04-25T16:35:20.125Z,1.73
2023-04-25T16:37:50.730Z,2.04
2023-04-25T16:40:19.331Z,1.86
2023-04-25T16:42:49.340Z,1.99
2023-04-25T16:45:18.918Z,2.01
2023-04-25T16:47:47.100Z,2.05
2023-04-25T16:50:14.230Z,1.94
2023-04-25T16:52:41.910Z,1.79
2023-04-25T16:55:09.830Z,1.77
2023-04-25T16:57:36.578Z,1.76
2023-04-25T17:00:05.022Z,1.70
2023-04-25T17:02:46.291Z,1.63
2023-04-25T17:05:13.155Z,1.41
2023-04-25T17:07:40.057Z,1.43
2023-04-25T17:10:07.430Z,1.44
2023-04-25T17:12:34.229Z,1.56
2023-04-25T17:15:01.013Z,1.74
2023-04-25T17:17:28.464Z,1.65
2023-04-25T17:19:55.331Z,1.68
2023-04-25T17:22:22.309Z,1.61
2023-04-25T17:24:49.513Z,1.70
2023-04-25T17:27:16.314Z,2.96
2023-04-25T17:29:43.166Z,2.32
2023-04-25T17:32:10.748Z,1.86
2023-04-25T17:34:37.776Z,1.77
2023-04-25T17:37:04.524Z,1.71
2023-04-25T17:39:31.273Z,1.89
2023-04-25T17:42:00.250Z,1.86
2023-04-25T17:44:27.618Z,1.85
2023-04-25T17:46:57.228Z,1.99
2023-04-25T17:49:23.949Z,2.00
2023-04-25T17:51:50.772Z,1.95
2023-04-25T17:54:17.963Z,1.83
2023-04-25T17:56:44.754Z,1.92
2023-04-25T17:59:11.518Z,2.04
2023-04-25T18:01:48.537Z,2.05
2023-04-25T18:04:15.295Z,1.98
2023-04-25T18:06:42.052Z,2.16
2023-04-25T18:09:09.630Z,2.17
2023-04-25T18:11:36.414Z,2.20
2023-04-25T18:14:03.134Z,2.58
2023-04-25T18:16:30.054Z,3.11
2023-04-25T18:18:56.842Z,2.83
2023-04-25T18:21:24.253Z,2.82
2023-04-25T18:23:51.892Z,2.58
2023-04-25T18:26:18.898Z,2.48
2023-04-25T18:28:47.465Z,2.32
2023-04-25T18:31:14.257Z,2.34
2023-04-25T18:33:41.056Z,2.42
2023-04-25T18:36:08.924Z,2.25
2023-04-25T18:38:36.761Z,2.40
2023-04-25T18:41:18.275Z,2.21
2023-04-25T18:43:51.959Z,2.29
2023-04-25T18:46:20.213Z,2.54
2023-04-25T18:48:47.638Z,2.62
2023-04-25T18:51:14.469Z,2.55
2023-04-25T18:53:41.763Z,2.71
2023-04-25T18:56:08.560Z,2.61
2023-04-25T18:58:35.452Z,2.94
2023-04-25T19:01:05.159Z,2.99
2023-04-25T19:03:32.190Z,3.61
2023-04-25T19:06:00.433Z,4.34
2023-04-25T19:08:28.344Z,4.01
2023-04-25T19:10:55.021Z,4.05
2023-04-25T19:13:22.790Z,3.91
2023-04-25T19:15:49.583Z,3.88
2023-04-25T19:18:16.473Z,4.34
2023-04-25T19:20:43.673Z,3.97
2023-04-25T19:23:11.125Z,3.88
2023-04-25T19:25:37.995Z,3.99
2023-04-25T19:28:06.641Z,4.10
2023-04-25T19:30:33.401Z,4.24
2023-04-25T19:33:00.272Z,5.14
2023-04-25T19:35:27.012Z,4.76
2023-04-25T19:37:53.748Z,4.72
2023-04-25T19:40:20.492Z,4.43
2023-04-25T19:42:47.234Z,4.25
2023-04-25T19:45:14.449Z,4.39
2023-04-25T19:47:41.841Z,4.51
2023-04-25T19:50:10.195Z,4.18
2023-04-25T19:52:39.005Z,4.01
2023-04-25T19:55:08.019Z,3.94
2023-04-25T19:57:35.287Z,4.00
2023-04-25T20:00:02.627Z,4.05
2023-04-25T20:02:29.431Z,4.19
2023-04-25T20:04:56.253Z,4.19
2023-04-25T20:07:23.038Z,4.24
2023-04-25T20:09:49.849Z,4.64
2023-04-25T20:12:17.221Z,5.02
2023-04-25T20:14:44.025Z,4.84
2023-04-25T20:17:10.758Z,4.70
2023-04-25T20:19:38.227Z,3.70
2023-04-25T20:22:05.972Z,4.43
2023-04-25T20:24:33.850Z,4.21
2023-04-25T20:27:02.902Z,4.06
2023-04-25T20:29:30.194Z,3.81
2023-04-25T20:31:57.171Z,3.68
2023-04-25T20:34:24.024Z,3.18
2023-04-25T20:40:46.566Z,3.38
2023-04-25T20:43:13.318Z,3.10
2023-04-25T20:45:40.469Z,3.10
2023-04-25T20:48:07.235Z,3.21
2023-04-25T20:50:33.959Z,3.22
2023-04-25T20:53:01.951Z,3.24
2023-04-25T20:55:28.752Z,3.27
2023-04-25T20:57:56.865Z,3.26
2023-04-25T21:00:30.916Z,3.42
2023-04-25T21:02:58.288Z,3.35
2023-04-25T21:05:25.465Z,3.18
2023-04-25T21:07:52.645Z,3.18
2023-04-25T21:10:19.713Z,3.23
2023-04-25T21:12:47.237Z,3.08
2023-04-25T21:15:14.147Z,3.10
2023-04-25T21:17:41.324Z,3.66
2023-04-25T21:20:11.090Z,3.29
2023-04-25T21:22:38.120Z,2.91
2023-04-25T21:25:06.620Z,3.34
2023-04-25T21:27:33.445Z,4.18
2023-04-25T21:30:00.457Z,3.36
2023-04-25T21:32:27.548Z,3.40
2023-04-25T21:34:54.650Z,3.35
2023-04-25T21:37:21.705Z,3.36
2023-04-25T21:39:51.512Z,3.08
2023-04-25T21:42:18.213Z,3.20
2023-04-25T21:44:45.241Z,3.10
2023-04-25T21:47:13.233Z,2.87
2023-04-25T21:49:39.953Z,3.24
2023-04-25T21:52:07.135Z,2.78
2023-04-25T21:54:34.385Z,2.93
2023-04-25T21:57:01.188Z,2.89
2023-04-25T21:59:28.249Z,3.05
2023-04-25T22:01:55.584Z,3.02
2023-04-25T22:04:22.499Z,2.95
2023-04-25T22:06:50.204Z,3.18
2023-04-25T22:09:16.958Z,3.29
2023-04-25T22:11:43.786Z,3.51
2023-04-25T22:14:10.523Z,3.01
2023-04-25T22:16:37.822Z,2.84
2023-04-25T22:19:04.743Z,3.03
2023-04-25T22:21:31.627Z,3.21
2023-04-25T22:23:58.296Z,3.42
2023-04-25T22:26:25.537Z,3.12
2023-04-25T22:28:52.519Z,3.27
2023-04-25T22:31:19.615Z,3.16
2023-04-25T22:33:47.345Z,3.16
2023-04-25T22:36:15.504Z,3.21
2023-04-25T22:38:42.523Z,3.07
2023-04-25T22:41:09.283Z,3.08
2023-04-25T22:43:39.579Z,2.91
2023-04-25T22:46:07.611Z,3.05
2023-04-25T22:48:35.590Z,2.98
2023-04-25T22:51:03.331Z,2.96
2023-04-25T22:53:30.177Z,3.12
2023-04-25T22:55:58.368Z,3.05
2023-04-25T22:58:25.080Z,3.15
2023-04-25T23:00:51.856Z,3.13
2023-04-25T23:03:19.921Z,3.20
2023-04-25T23:05:46.738Z,3.05
2023-04-25T23:08:13.759Z,3.23
2023-04-25T23:10:40.979Z,3.15
2023-04-25T23:13:11.864Z,3.08
2023-04-25T23:15:39.691Z,2.89
2023-04-25T23:18:06.604Z,3.12
2023-04-25T23:20:34.718Z,3.11
2023-04-25T23:23:01.812Z,3.29
2023-04-25T23:25:28.530Z,3.53
2023-04-25T23:27:55.642Z,3.61
2023-04-25T23:30:22.928Z,3.67
2023-04-25T23:32:49.817Z,3.62
2023-04-25T23:35:16.692Z,3.53
2023-04-25T23:37:44.128Z,3.22
2023-04-25T23:40:11.350Z,3.35
2023-04-25T23:42:38.503Z,3.82
2023-04-25T23:45:07.130Z,3.62
2023-04-25T23:47:34.518Z,3.56
2023-04-25T23:50:01.403Z,3.93
2023-04-25T23:52:28.543Z,3.90
2023-04-25T23:54:55.489Z,4.21
2023-04-25T23:57:22.365Z,4.02
2023-04-25T23:59:50.962Z,3.83
